Time;durP1;ratioP1;P1;durP2;ratioP2;P2;SDS_P1;SDS_P2;PMS_P1;PMS_P2;Temp;Humidity;BMP_temperature;BMP_pressure;BME280_temperature;BME280_humidity;BME280_pressure;Samples;Min_cycle;Max_cycle;Signal;HPM_P1;HPM_P2
2022/06/14 00:02:01;;;;;;;;;;;;;;;20.95;72.03;99480.94;3128893;28;19929;-64
2022/06/14 00:03:35;;;;;;;;;;;;;;;20.92;71.52;99486.53;3128475;28;20252;-64
2022/06/14 00:05:07;;;;;;;;;;;;;;;20.91;71.65;99477.72;3128389;28;19931;-64
2022/06/14 00:06:39;;;;;;;;;;;;;;;20.88;71.89;99480.66;3128548;28;20738;-64
2022/06/14 00:08:10;;;;;;;;;;;;;;;20.87;71.81;99471.06;3128448;28;19932;-64
2022/06/14 00:09:42;;;;;;;;;;;;;;;20.86;71.96;99475.53;3128669;28;19944;-65
2022/06/14 00:11:16;;;;;;;;;;;;;;;20.83;71.91;99481.09;3128836;28;19932;-65
2022/06/14 00:12:46;;;;;;;;;;;;;;;20.81;72.39;99472.47;3128465;28;19925;-65
2022/06/14 00:14:19;;;;;;;;;;;;;;;20.78;72.39;99474.56;3128772;28;19925;-64
2022/06/14 00:15:50;;;;;;;;;;;;;;;20.75;72.63;99473.03;3128571;28;20360;-65
2022/06/14 00:17:21;;;;;;;;;;;;;;;20.70;72.93;99474.44;3121895;28;19924;-65
2022/06/14 00:18:53;;;;;;;;;;;;;;;20.68;72.63;99471.94;3128859;28;19925;-65
2022/06/14 00:20:25;;;;;;;;;;;;;;;20.71;72.36;99476.97;3132674;28;19924;-65
2022/06/14 00:21:56;;;;;;;;;;;;;;;20.74;72.58;99473.19;3128475;28;19924;-65
2022/06/14 00:23:28;;;;;;;;;;;;;;;20.73;72.51;99482.09;3128517;28;19925;-65
2022/06/14 00:25:00;;;;;;;;;;;;;;;20.71;72.44;99476.97;3128424;28;19990;-65
2022/06/14 00:26:33;;;;;;;;;;;;;;;20.68;72.75;99475.44;3128090;28;19976;-64
2022/06/14 00:28:06;;;;;;;;;;;;;;;20.68;72.77;99472.78;3128810;28;19983;-65
2022/06/14 00:29:37;;;;;;;;;;;;;;;20.68;72.45;99475.44;3128517;28;20070;-65
2022/06/14 00:31:11;;;;;;;;;;;;;;;20.67;72.86;99476.41;3128180;28;20366;-65
2022/06/14 00:32:42;;;;;;;;;;;;;;;20.64;72.98;99474.03;3128144;28;20005;-65
2022/06/14 00:34:14;;;;;;;;;;;;;;;20.63;72.58;99479.47;3128019;28;20764;-65
2022/06/14 00:35:46;;;;;;;;;;;;;;;20.60;72.90;99477.94;3128097;28;19929;-65
2022/06/14 00:37:18;;;;;;;;;;;;;;;20.57;72.99;99472.94;3128429;28;19924;-65
2022/06/14 00:38:50;;;;;;;;;;;;;;;20.55;72.82;99474.88;3128211;28;19928;-65
2022/06/14 00:40:23;;;;;;;;;;;;;;;20.53;72.68;99483.91;3128490;28;19924;-65
2022/06/14 00:41:56;;;;;;;;;;;;;;;20.51;72.57;99484.03;3128520;28;20020;-66
2022/06/14 00:43:29;;;;;;;;;;;;;;;20.51;72.28;99481.41;3127950;28;20062;-65
2022/06/14 00:45:01;;;;;;;;;;;;;;;20.48;72.33;99486.16;3128770;28;19928;-65
2022/06/14 00:46:36;;;;;;;;;;;;;;;20.45;72.04;99481.97;3128171;28;19977;-65
2022/06/14 00:48:09;;;;;;;;;;;;;;;20.40;72.39;99489.47;3127900;28;20390;-66
2022/06/14 00:49:47;;;;;;;;;;;;;;;20.38;72.04;99492.28;3128263;28;19924;-65
2022/06/14 00:51:19;;;;;;;;;;;;;;;20.35;72.07;99491.69;3123951;28;19924;-65
2022/06/14 00:52:55;;;;;;;;;;;;;;;20.31;72.18;99490.31;3126575;28;19925;-65
2022/06/14 00:54:31;;;;;;;;;;;;;;;20.31;72.09;99493.78;3128111;28;19925;-66
2022/06/14 00:56:04;;;;;;;;;;;;;;;20.31;71.69;99496.44;3128112;28;20244;-65
2022/06/14 00:57:41;;;;;;;;;;;;;;;20.32;71.84;99497.25;3126238;28;19982;-65
2022/06/14 00:59:17;;;;;;;;;;;;;;;20.32;71.58;99498.13;3128215;28;19947;-65
2022/06/14 01:00:52;;;;;;;;;;;;;;;20.29;71.59;99493.13;3123265;28;19928;-65
2022/06/14 01:02:26;;;;;;;;;;;;;;;20.34;71.47;99503.25;3128052;28;20495;-65
2022/06/14 01:03:57;;;;;;;;;;;;;;;20.33;71.38;99505.06;3128525;28;19924;-65
2022/06/14 01:06:05;;;;;;;;;;;;;;;20.32;71.48;99510.47;3123650;28;19957;-66
2022/06/14 01:07:28;;;;;;;;;;;;;;;20.34;71.30;99508.53;3123490;28;20020;-65
2022/06/14 01:09:03;;;;;;;;;;;;;;;20.34;71.41;99511.19;3122935;28;19929;-65
2022/06/14 01:10:35;;;;;;;;;;;;;;;20.31;71.24;99504.38;3124270;28;20528;-65
2022/06/14 01:12:09;;;;;;;;;;;;;;;20.31;71.32;99509.66;3127963;28;20258;-65
2022/06/14 01:13:43;;;;;;;;;;;;;;;20.30;71.21;99500.06;3128130;28;19924;-65
2022/06/14 01:15:17;;;;;;;;;;;;;;;20.30;71.18;99501.88;3127490;28;19982;-64
2022/06/14 01:16:49;;;;;;;;;;;;;;;20.30;70.94;99491.31;3127927;28;19958;-64
2022/06/14 01:18:21;;;;;;;;;;;;;;;20.29;71.04;99493.13;3128009;28;19931;-65
2022/06/14 01:19:52;;;;;;;;;;;;;;;20.30;71.14;99491.31;3131650;28;20359;-64
2022/06/14 01:21:24;;;;;;;;;;;;;;;20.30;70.92;99486.84;3121465;28;19924;-65
2022/06/14 01:22:57;;;;;;;;;;;;;;;20.29;70.94;99487.81;3127796;28;19928;-65
2022/06/14 01:24:29;;;;;;;;;;;;;;;20.30;70.91;99486.00;3127803;28;19929;-65
2022/06/14 01:26:07;;;;;;;;;;;;;;;20.28;71.08;99483.50;3127891;28;19925;-65
2022/06/14 01:27:40;;;;;;;;;;;;;;;20.28;71.03;99477.38;3127854;28;19924;-65
2022/06/14 01:29:12;;;;;;;;;;;;;;;20.24;71.23;99476.81;3124771;28;19925;-65
2022/06/14 01:30:46;;;;;;;;;;;;;;;20.20;71.30;99483.34;3127658;28;19924;-65
2022/06/14 01:32:19;;;;;;;;;;;;;;;20.19;70.98;99479.03;3126798;28;20742;-65
2022/06/14 01:33:54;;;;;;;;;;;;;;;20.19;70.95;99479.03;3127731;28;20094;-65
2022/06/14 01:35:28;;;;;;;;;;;;;;;20.18;71.19;99483.50;3123340;28;19925;-65
2022/06/14 01:37:00;;;;;;;;;;;;;;;20.17;70.93;99487.13;3122405;28;19985;-65
2022/06/14 01:38:33;;;;;;;;;;;;;;;20.17;70.94;99488.91;3127778;28;20354;-64
2022/06/14 01:40:06;;;;;;;;;;;;;;;20.16;70.96;99496.00;3127660;28;19929;-65
2022/06/14 01:41:43;;;;;;;;;;;;;;;20.13;71.06;99491.00;3127642;28;20688;-64
2022/06/14 01:43:21;;;;;;;;;;;;;;;20.06;71.01;99486.41;3127773;28;20321;-64
2022/06/14 01:44:58;;;;;;;;;;;;;;;20.07;71.35;99502.13;3127828;28;19924;-65
2022/06/14 01:46:32;;;;;;;;;;;;;;;20.03;71.19;99494.63;3127732;28;20024;-65
2022/06/14 01:48:10;;;;;;;;;;;;;;;20.02;71.32;99503.50;3127421;28;19931;-67
2022/06/14 01:51:53;;;;;;;;;;;;;;;19.95;71.15;99508.50;3126660;28;20427;-66
2022/06/14 01:53:31;;;;;;;;;;;;;;;19.94;71.28;99512.13;3121509;28;19971;-65
2022/06/14 01:55:11;;;;;;;;;;;;;;;19.90;71.41;99513.34;3121161;28;19924;-65
2022/06/14 01:56:48;;;;;;;;;;;;;;;19.90;71.43;99516.00;3121227;28;19955;-65
2022/06/14 01:58:24;;;;;;;;;;;;;;;19.89;71.31;99514.34;3126691;28;20386;-65
2022/06/14 02:00:01;;;;;;;;;;;;;;;19.85;71.37;99508.50;3127867;28;19924;-65
2022/06/14 02:01:36;;;;;;;;;;;;;;;19.83;71.71;99517.53;3124894;28;19932;-66
2022/06/14 02:05:05;;;;;;;;;;;;;;;19.76;71.84;99514.59;3124823;28;19925;-65
2022/06/14 02:06:38;;;;;;;;;;;;;;;19.71;72.26;99517.63;3123987;28;19924;-64
2022/06/14 02:08:13;;;;;;;;;;;;;;;19.67;72.13;99521.53;3127715;28;20362;-63
2022/06/14 02:09:52;;;;;;;;;;;;;;;19.62;72.65;99523.69;3127352;28;20531;-63
2022/06/14 02:11:27;;;;;;;;;;;;;;;19.56;72.67;99524.22;3127594;28;19981;-63
2022/06/14 02:13:02;;;;;;;;;;;;;;;19.54;72.80;99515.59;3127427;28;19924;-64
2022/06/14 02:14:36;;;;;;;;;;;;;;;19.52;72.84;99523.66;3127680;28;19924;-63
2022/06/14 02:16:11;;;;;;;;;;;;;;;19.48;72.95;99518.75;3127569;28;20479;-64
2022/06/14 02:17:44;;;;;;;;;;;;;;;19.43;73.11;99516.53;3127222;28;19940;-64
2022/06/14 02:19:19;;;;;;;;;;;;;;;19.37;73.57;99521.50;3127933;28;19928;-64
2022/06/14 02:20:53;;;;;;;;;;;;;;;19.29;73.88;99524.81;3130903;28;19928;-64
2022/06/14 02:22:27;;;;;;;;;;;;;;;19.25;73.85;99526.84;3123256;28;20429;-64
2022/06/14 02:24:02;;;;;;;;;;;;;;;19.23;74.01;99534.09;3127742;28;19996;-64
2022/06/14 02:25:36;;;;;;;;;;;;;;;19.24;73.63;99525.19;3127211;28;19935;-65
2022/06/14 02:27:14;;;;;;;;;;;;;;;19.26;73.61;99523.25;3127532;28;19924;-64
2022/06/14 02:28:48;;;;;;;;;;;;;;;19.27;73.42;99526.72;3127264;28;19971;-65
2022/06/14 02:30:22;;;;;;;;;;;;;;;19.26;73.43;99528.53;3126333;28;19966;-65
2022/06/14 02:31:56;;;;;;;;;;;;;;;19.27;73.48;99527.56;3126940;28;20409;-64
2022/06/14 02:33:33;;;;;;;;;;;;;;;19.30;73.24;99524.66;3127220;28;20420;-64
2022/06/14 02:35:07;;;;;;;;;;;;;;;19.28;73.53;99526.59;3128019;28;19928;-65
2022/06/14 02:36:41;;;;;;;;;;;;;;;19.30;73.29;99524.66;3127455;28;19932;-66
2022/06/14 02:38:15;;;;;;;;;;;;;;;19.28;73.43;99520.47;3127720;28;19959;-64
2022/06/14 02:39:50;;;;;;;;;;;;;;;19.26;73.37;99523.25;3127417;28;19929;-64
2022/06/14 02:41:23;;;;;;;;;;;;;;;19.25;73.49;99523.38;3127352;28;20036;-66
2022/06/14 02:42:58;;;;;;;;;;;;;;;19.23;73.55;99527.97;3128103;28;19925;-64
2022/06/14 02:44:34;;;;;;;;;;;;;;;19.23;73.48;99520.88;3124577;28;19994;-64
2022/06/14 02:46:08;;;;;;;;;;;;;;;19.24;73.42;99524.34;3129721;28;19990;-65
2022/06/14 02:47:43;;;;;;;;;;;;;;;19.25;73.11;99521.56;3129759;28;19925;-65
2022/06/14 02:49:16;;;;;;;;;;;;;;;19.23;73.53;99523.53;3126861;28;19935;-65
2022/06/14 02:50:51;;;;;;;;;;;;;;;19.24;73.53;99524.34;3129713;28;19924;-65
2022/06/14 02:52:28;;;;;;;;;;;;;;;19.23;73.52;99512.97;3128973;28;20008;-65
2022/06/14 02:54:03;;;;;;;;;;;;;;;19.17;73.99;99512.66;3129317;28;19997;-65
2022/06/14 02:55:38;;;;;;;;;;;;;;;19.12;74.14;99510.41;3129422;28;19925;-65
2022/06/14 02:57:14;;;;;;;;;;;;;;;19.07;74.13;99512.59;3131033;28;19951;-65
2022/06/14 02:58:50;;;;;;;;;;;;;;;19.03;74.45;99512.03;3124968;28;19924;-65
2022/06/14 03:00:24;;;;;;;;;;;;;;;19.02;74.33;99510.34;3125694;28;20031;-63
2022/06/14 03:01:58;;;;;;;;;;;;;;;19.02;74.41;99505.09;3124244;28;19977;-65
2022/06/14 03:03:32;;;;;;;;;;;;;;;19.05;74.33;99507.47;3125066;28;19924;-64
2022/06/14 03:05:08;;;;;;;;;;;;;;;19.07;74.10;99510.78;3125482;28;19935;-64
2022/06/14 03:06:42;;;;;;;;;;;;;;;19.10;74.07;99507.03;3125397;28;20150;-63
2022/06/14 03:08:16;;;;;;;;;;;;;;;19.12;73.97;99512.22;3124369;28;20012;-64
2022/06/14 03:09:48;;;;;;;;;;;;;;;19.13;74.01;99512.06;3124131;28;20428;-64
2022/06/14 03:11:28;;;;;;;;;;;;;;;19.14;73.96;99508.47;3129425;28;20031;-64
2022/06/14 03:13:03;;;;;;;;;;;;;;;19.17;73.57;99516.13;3129454;28;19925;-64
2022/06/14 03:14:43;;;;;;;;;;;;;;;19.17;73.53;99516.13;3129400;28;19925;-64
2022/06/14 03:16:20;;;;;;;;;;;;;;;19.19;73.73;99514.19;3129316;28;20031;-63
2022/06/14 03:18:00;;;;;;;;;;;;;;;19.20;73.60;99513.22;3128969;28;20298;-65
2022/06/14 03:19:36;;;;;;;;;;;;;;;19.22;73.74;99513.09;3130155;28;19925;-64
2022/06/14 03:21:13;;;;;;;;;;;;;;;19.16;73.64;99506.53;3130067;28;19925;-64
2022/06/14 03:22:49;;;;;;;;;;;;;;;19.10;73.79;99494.69;3129286;28;20103;-64
2022/06/14 03:24:25;;;;;;;;;;;;;;;19.19;73.88;99508.91;3129112;28;19924;-64
2022/06/14 03:26:01;;;;;;;;;;;;;;;19.17;74.23;99500.31;3129363;28;20324;-65
2022/06/14 03:27:34;;;;;;;;;;;;;;;19.12;74.26;99510.41;3126960;28;20384;-64
2022/06/14 03:29:09;;;;;;;;;;;;;;;19.12;74.52;99509.56;3129625;28;19950;-65
2022/06/14 03:30:42;;;;;;;;;;;;;;;19.13;74.27;99500.69;3128976;28;19934;-65
2022/06/14 03:32:17;;;;;;;;;;;;;;;19.14;74.49;99503.19;3129206;28;19928;-65
2022/06/14 03:33:50;;;;;;;;;;;;;;;19.12;74.45;99501.66;3128952;28;19925;-65
2022/06/14 03:35:25;;;;;;;;;;;;;;;19.09;74.58;99500.09;3129156;28;19925;-64
2022/06/14 03:36:57;;;;;;;;;;;;;;;19.08;74.45;99503.72;3129296;28;20441;-65
2022/06/14 03:38:32;;;;;;;;;;;;;;;19.06;74.43;99495.94;3128916;28;19947;-65
2022/06/14 03:40:06;;;;;;;;;;;;;;;19.06;74.72;99503.84;3129255;28;19929;-65
2022/06/14 03:41:40;;;;;;;;;;;;;;;19.05;74.63;99494.25;3128559;28;19931;-65
2022/06/14 03:43:12;;;;;;;;;;;;;;;19.04;74.70;99497.84;3129264;28;20045;-65
2022/06/14 03:44:44;;;;;;;;;;;;;;;19.04;74.75;99503.13;3128895;28;20418;-64
2022/06/14 03:46:26;;;;;;;;;;;;;;;19.02;74.92;99501.63;3129050;28;20299;-64
2022/06/14 03:47:58;;;;;;;;;;;;;;;19.02;75.02;99506.88;3126410;28;19928;-65
2022/06/14 03:49:29;;;;;;;;;;;;;;;19.00;75.09;99499.09;3128531;28;20401;-64
2022/06/14 03:51:07;;;;;;;;;;;;;;;19.01;75.13;99502.56;3128796;28;20051;-64
2022/06/14 03:52:48;;;;;;;;;;;;;;;19.00;75.06;99492.97;3122188;28;19932;-64
2022/06/14 03:54:38;;;;;;;;;;;;;;;19.01;75.10;99492.84;3128639;28;19931;-65
2022/06/14 03:56:21;;;;;;;;;;;;;;;19.03;75.40;99498.81;3127147;28;20457;-65
2022/06/14 03:58:01;;;;;;;;;;;;;;;19.04;75.10;99489.09;3126777;28;20630;-65
2022/06/14 03:59:44;;;;;;;;;;;;;;;19.05;75.04;99493.44;3128776;28;19935;-64
2022/06/14 04:01:20;;;;;;;;;;;;;;;19.06;75.10;99497.72;3127272;28;19931;-65
2022/06/14 04:03:00;;;;;;;;;;;;;;;19.06;75.28;99493.28;3128865;28;19990;-64
2022/06/14 04:04:39;;;;;;;;;;;;;;;19.09;75.11;99493.03;3128700;28;19924;-65
2022/06/14 04:06:17;;;;;;;;;;;;;;;19.09;74.83;99494.84;3128857;28;19925;-64
2022/06/14 04:07:53;;;;;;;;;;;;;;;19.10;74.75;99494.69;3128610;28;20231;-64
2022/06/14 04:09:32;;;;;;;;;;;;;;;19.16;74.85;99498.59;3128550;28;19990;-64
2022/06/14 04:11:10;;;;;;;;;;;;;;;19.19;74.51;99495.69;3128604;28;20385;-63
2022/06/14 04:12:45;;;;;;;;;;;;;;;19.24;74.31;99505.88;3128739;28;20405;-63
2022/06/14 04:14:26;;;;;;;;;;;;;;;19.28;74.08;99508.09;3128536;28;20353;-63
2022/06/14 04:16:00;;;;;;;;;;;;;;;19.33;73.96;99502.44;3128556;28;19986;-63
2022/06/14 04:17:40;;;;;;;;;;;;;;;19.37;73.73;99505.66;3128367;28;19925;-64
2022/06/14 04:19:14;;;;;;;;;;;;;;;19.39;73.62;99504.56;3128920;28;20313;-63
2022/06/14 04:20:45;;;;;;;;;;;;;;;19.42;73.58;99504.28;3130526;28;19924;-63
2022/06/14 04:22:20;;;;;;;;;;;;;;;19.47;73.54;99506.53;3128771;28;20446;-63
2022/06/14 04:23:55;;;;;;;;;;;;;;;19.50;73.41;99503.63;3128273;28;20448;-63
2022/06/14 04:25:30;;;;;;;;;;;;;;;19.53;73.31;99509.47;3128027;28;19936;-63
2022/06/14 04:27:09;;;;;;;;;;;;;;;19.57;73.32;99503.94;3128651;28;19940;-63
2022/06/14 04:28:44;;;;;;;;;;;;;;;19.61;73.46;99519.38;3124347;28;19924;-64
2022/06/14 04:30:18;;;;;;;;;;;;;;;19.65;73.28;99510.25;3123456;28;20430;-64
2022/06/14 04:31:52;;;;;;;;;;;;;;;19.69;72.95;99513.44;3128455;28;19924;-64
2022/06/14 04:33:29;;;;;;;;;;;;;;;19.73;73.02;99515.69;3128150;28;19924;-64
2022/06/14 04:35:03;;;;;;;;;;;;;;;19.80;72.83;99523.09;3128640;28;19924;-64
2022/06/14 04:36:36;;;;;;;;;;;;;;;19.84;72.71;99513.91;3128114;28;19924;-64
2022/06/14 04:38:12;;;;;;;;;;;;;;;19.89;72.52;99519.63;3128347;28;19978;-65
2022/06/14 04:39:46;;;;;;;;;;;;;;;19.94;72.85;99522.72;3128170;28;19982;-65
2022/06/14 04:41:20;;;;;;;;;;;;;;;19.98;72.51;99518.81;3128183;28;19925;-65
2022/06/14 04:42:54;;;;;;;;;;;;;;;20.03;72.54;99523.69;3128011;28;19986;-65
2022/06/14 04:44:28;;;;;;;;;;;;;;;20.08;72.40;99521.47;3128268;28;19928;-64
2022/06/14 04:46:03;;;;;;;;;;;;;;;20.15;72.06;99525.25;3127629;28;20461;-65
2022/06/14 04:47:38;;;;;;;;;;;;;;;20.19;71.81;99527.47;3128077;28;19986;-65
2022/06/14 04:49:14;;;;;;;;;;;;;;;20.27;72.01;99525.94;3124882;28;19978;-65
2022/06/14 04:50:49;;;;;;;;;;;;;;;20.32;72.04;99529.00;3124501;28;19972;-65
2022/06/14 04:52:24;;;;;;;;;;;;;;;20.37;71.68;99532.06;3123041;28;19924;-65
2022/06/14 04:54:01;;;;;;;;;;;;;;;20.42;71.52;99530.69;3127450;28;20013;-63
2022/06/14 04:55:35;;;;;;;;;;;;;;;20.49;71.34;99530.13;3129697;28;19999;-64
2022/06/14 04:57:09;;;;;;;;;;;;;;;20.52;71.21;99528.06;3124311;28;19985;-68
2022/06/14 04:58:43;;;;;;;;;;;;;;;20.58;71.11;99529.31;3123509;28;19931;-65
2022/06/14 05:00:16;;;;;;;;;;;;;;;20.63;71.18;99529.75;3123321;28;20019;-65
2022/06/14 05:01:50;;;;;;;;;;;;;;;20.68;70.85;99533.63;3122502;28;19978;-65
2022/06/14 05:03:24;;;;;;;;;;;;;;;20.74;70.69;99528.78;3123262;28;19928;-63
2022/06/14 05:05:00;;;;;;;;;;;;;;;20.79;70.34;99535.28;3121222;28;19931;-66
2022/06/14 05:06:35;;;;;;;;;;;;;;;20.84;70.15;99525.13;3123182;28;19956;-65
2022/06/14 05:08:09;;;;;;;;;;;;;;;20.90;69.95;99529.84;3123360;28;20281;-66
2022/06/14 05:09:44;;;;;;;;;;;;;;;20.96;69.82;99528.44;3118254;28;19925;-66
2022/06/14 05:11:20;;;;;;;;;;;;;;;21.02;69.55;99532.34;3116851;28;19924;-65
2022/06/14 05:12:55;;;;;;;;;;;;;;;21.08;69.34;99524.63;3122959;28;20389;-65
2022/06/14 05:14:29;;;;;;;;;;;;;;;21.16;69.26;99534.53;3123471;28;20158;-65
2022/06/14 05:16:03;;;;;;;;;;;;;;;21.23;69.14;99534.78;3123906;28;19932;-65
2022/06/14 05:17:36;;;;;;;;;;;;;;;21.30;68.79;99535.91;3123345;28;20409;-65
2022/06/14 05:19:12;;;;;;;;;;;;;;;21.37;68.82;99544.94;3123346;28;19928;-65
2022/06/14 05:20:49;;;;;;;;;;;;;;;21.46;68.37;99543.25;3124994;28;19928;-64
2022/06/14 05:22:23;;;;;;;;;;;;;;;21.52;67.78;99542.66;3124229;28;19982;-64
2022/06/14 05:23:56;;;;;;;;;;;;;;;21.58;67.32;99542.91;3124363;28;19925;-65
2022/06/14 05:25:31;;;;;;;;;;;;;;;21.65;66.84;99543.19;3124182;28;19925;-64
2022/06/14 05:27:23;;;;;;;;;;;;;;;21.73;67.01;99551.22;3124153;28;20348;-64
2022/06/14 05:29:01;;;;;;;;;;;;;;;21.80;66.26;99544.34;3120080;28;20385;-65
2022/06/14 05:30:38;;;;;;;;;;;;;;;21.90;66.29;99549.59;3123389;28;19925;-65
2022/06/14 05:32:15;;;;;;;;;;;;;;;21.96;65.92;99554.31;3123617;28;19924;-64
2022/06/14 05:33:52;;;;;;;;;;;;;;;22.04;65.55;99553.56;3123144;28;20030;-63
2022/06/14 05:35:29;;;;;;;;;;;;;;;22.12;65.33;99547.50;3125641;28;20023;-64
2022/06/14 05:37:04;;;;;;;;;;;;;;;22.18;64.97;99555.75;3127897;28;20434;-63
2022/06/14 05:38:39;;;;;;;;;;;;;;;22.24;64.44;99549.84;3125596;28;19924;-64
2022/06/14 05:40:14;;;;;;;;;;;;;;;22.31;64.16;99551.91;3127946;28;20314;-62
2022/06/14 05:41:47;;;;;;;;;;;;;;;22.37;63.52;99548.63;3128133;28;19971;-61
2022/06/14 05:43:26;;;;;;;;;;;;;;;22.43;63.13;99550.69;3126393;28;19929;-62
2022/06/14 05:45:00;;;;;;;;;;;;;;;22.49;62.79;99550.91;3122366;28;19978;-61
2022/06/14 05:46:34;;;;;;;;;;;;;;;22.55;62.62;99548.63;3127474;28;19924;-61
2022/06/14 05:48:08;;;;;;;;;;;;;;;22.61;62.80;99550.69;3127651;28;19931;-62
2022/06/14 05:49:42;;;;;;;;;;;;;;;22.67;62.21;99556.22;3127472;28;20756;-61
2022/06/14 05:51:15;;;;;;;;;;;;;;;22.72;61.88;99563.72;3127825;28;20015;-60
2022/06/14 05:52:50;;;;;;;;;;;;;;;22.80;62.27;99555.81;3122243;28;19925;-62
2022/06/14 05:54:26;;;;;;;;;;;;;;;22.86;61.79;99560.50;3128055;28;20409;-61
2022/06/14 05:56:02;;;;;;;;;;;;;;;22.94;62.23;99559.75;3124522;28;20404;-62
2022/06/14 05:57:36;;;;;;;;;;;;;;;23.02;62.23;99564.31;3127901;28;19924;-61
2022/06/14 05:59:11;;;;;;;;;;;;;;;23.09;61.40;99571.50;3127864;28;19925;-62
2022/06/14 06:00:44;;;;;;;;;;;;;;;23.14;61.04;99569.22;3127353;28;19925;-62
2022/06/14 06:02:18;;;;;;;;;;;;;;;23.19;60.30;99568.75;3127555;28;20071;-61
2022/06/14 06:03:53;;;;;;;;;;;;;;;23.26;60.76;99566.31;3127218;28;19925;-58
2022/06/14 06:05:31;;;;;;;;;;;;;;;23.30;59.69;99565.81;3127820;28;20363;-60
2022/06/14 06:07:07;;;;;;;;;;;;;;;23.37;59.88;99568.69;3127363;28;19925;-61
2022/06/14 06:08:42;;;;;;;;;;;;;;;23.42;59.34;99566.38;3127848;28;19930;-61
2022/06/14 06:10:15;;;;;;;;;;;;;;;23.48;58.94;99572.91;3127685;28;19967;-64
2022/06/14 06:11:50;;;;;;;;;;;;;;;23.51;58.42;99570.75;3127589;28;19931;-67
2022/06/14 06:13:24;;;;;;;;;;;;;;;23.56;58.34;99568.47;3127700;28;19963;-64
2022/06/14 06:15:03;;;;;;;;;;;;;;;23.62;58.10;99569.66;3127557;28;19924;-61
2022/06/14 06:16:37;;;;;;;;;;;;;;;23.65;57.80;99571.16;3127534;28;19925;-65
2022/06/14 06:18:12;;;;;;;;;;;;;;;23.70;57.56;99568.91;3128271;28;19925;-64
2022/06/14 06:19:48;;;;;;;;;;;;;;;23.74;57.55;99565.75;3131003;28;19989;-64
2022/06/14 06:21:25;;;;;;;;;;;;;;;23.78;57.30;99564.47;3128176;28;19948;-64
2022/06/14 06:22:59;;;;;;;;;;;;;;;23.84;57.35;99569.13;3129378;28;19931;-64
2022/06/14 06:24:35;;;;;;;;;;;;;;;23.88;57.38;99571.47;3130098;28;19925;-63
2022/06/14 06:26:06;;;;;;;;;;;;;;;23.93;57.16;99563.81;3130061;28;19990;-63
2022/06/14 06:27:40;;;;;;;;;;;;;;;23.97;57.20;99571.34;3123175;28;20052;-64
2022/06/14 06:29:14;;;;;;;;;;;;;;;24.00;57.18;99571.00;3130128;28;19924;-63
2022/06/14 06:30:47;;;;;;;;;;;;;;;24.07;57.39;99581.81;3128158;28;19929;-62
2022/06/14 06:32:20;;;;;;;;;;;;;;;24.13;57.32;99575.03;3129111;28;19924;-62
2022/06/14 06:33:54;;;;;;;;;;;;;;;24.14;56.96;99571.41;3129923;28;19925;-64
2022/06/14 06:35:32;;;;;;;;;;;;;;;24.26;57.09;99567.44;3129717;28;19925;-63
2022/06/14 06:37:07;;;;;;;;;;;;;;;24.32;56.84;99571.28;3130229;28;19979;-62
2022/06/14 06:38:45;;;;;;;;;;;;;;;24.34;56.20;99567.44;3129315;28;20717;-63
2022/06/14 06:40:20;;;;;;;;;;;;;;;24.38;55.64;99568.78;3129663;28;19925;-62
2022/06/14 06:41:54;;;;;;;;;;;;;;;24.42;55.65;99575.47;3129772;28;19928;-62
2022/06/14 06:43:28;;;;;;;;;;;;;;;24.48;55.74;99569.47;3129226;28;19924;-63
2022/06/14 06:45:01;;;;;;;;;;;;;;;24.54;55.41;99560.00;3130115;28;20452;-66
2022/06/14 06:46:37;;;;;;;;;;;;;;;24.59;55.21;99565.69;3124555;28;19928;-63
2022/06/14 06:48:11;;;;;;;;;;;;;;;24.64;55.66;99566.03;3123239;28;19924;-63
2022/06/14 06:49:59;;;;;;;;;;;;;;;24.69;54.78;99565.50;3129004;28;19935;-62
2022/06/14 06:51:38;;;;;;;;;;;;;;;24.76;55.02;99561.19;3129735;28;19924;-62
2022/06/14 06:53:12;;;;;;;;;;;;;;;24.83;54.53;99575.50;3127012;28;19935;-62
2022/06/14 06:54:48;;;;;;;;;;;;;;;24.88;54.46;99572.34;3126913;28;19925;-60
2022/06/14 06:56:23;;;;;;;;;;;;;;;24.91;54.18;99566.69;3129608;28;19931;-64
2022/06/14 06:57:57;;;;;;;;;;;;;;;24.96;54.26;99561.66;3129552;28;19924;-64
2022/06/14 06:59:31;;;;;;;;;;;;;;;25.02;53.98;99571.66;3129641;28;19924;-64
2022/06/14 07:01:05;;;;;;;;;;;;;;;25.09;54.04;99571.84;3129764;28;19932;-64
2022/06/14 07:02:40;;;;;;;;;;;;;;;25.17;54.24;99569.16;3131098;28;19932;-63
2022/06/14 07:04:16;;;;;;;;;;;;;;;25.24;54.27;99554.19;3129539;28;20073;-64
2022/06/14 07:05:49;;;;;;;;;;;;;;;25.32;53.77;99559.50;3127733;28;20443;-65
2022/06/14 07:07:23;;;;;;;;;;;;;;;25.41;53.57;99568.31;3129514;28;20746;-65
2022/06/14 07:08:57;;;;;;;;;;;;;;;25.43;53.10;99556.44;3129898;28;20011;-65
2022/06/14 07:10:34;;;;;;;;;;;;;;;25.51;53.27;99565.44;3124215;28;19924;-64
2022/06/14 07:12:11;;;;;;;;;;;;;;;25.58;53.33;99572.56;3129548;28;19925;-65
2022/06/14 07:13:46;;;;;;;;;;;;;;;25.67;53.06;99564.53;3129260;28;20385;-64
2022/06/14 07:15:21;;;;;;;;;;;;;;;25.70;53.11;99562.34;3123556;28;19925;-63
2022/06/14 07:16:57;;;;;;;;;;;;;;;25.80;52.72;99571.00;3122887;28;19928;-63
2022/06/14 07:18:34;;;;;;;;;;;;;;;25.86;52.07;99569.50;3129271;28;20393;-64
2022/06/14 07:20:09;;;;;;;;;;;;;;;25.92;52.31;99566.16;3129668;28;19929;-63
2022/06/14 07:21:42;;;;;;;;;;;;;;;25.98;52.01;99570.78;3129211;28;20019;-67
2022/06/14 07:23:17;;;;;;;;;;;;;;;26.06;51.74;99564.59;3128620;28;20019;-62
2022/06/14 07:24:54;;;;;;;;;;;;;;;26.13;51.67;99570.88;3129705;28;19931;-63
2022/06/14 07:26:29;;;;;;;;;;;;;;;26.18;50.99;99573.03;3129062;28;19924;-67
2022/06/14 07:28:05;;;;;;;;;;;;;;;26.24;51.08;99561.66;3129211;28;19928;-66
2022/06/14 07:29:50;;;;;;;;;;;;;;;26.30;51.01;99571.63;3128087;28;19924;-67
2022/06/14 07:31:31;;;;;;;;;;;;;;;26.37;50.72;99571.75;3130137;28;20488;-71
2022/06/14 07:33:03;;;;;;;;;;;;;;;26.42;50.60;99570.19;3127710;28;19925;-69
2022/06/14 07:34:39;;;;;;;;;;;;;;;26.45;50.28;99575.19;3128966;28;19925;-69
2022/06/14 07:36:15;;;;;;;;;;;;;;;26.52;50.30;99562.81;3128892;28;20487;-68
2022/06/14 07:37:48;;;;;;;;;;;;;;;26.60;50.00;99566.44;3129093;28;19924;-68
2022/06/14 07:39:22;;;;;;;;;;;;;;;26.65;49.58;99564.91;3129369;28;19925;-66
2022/06/14 07:40:57;;;;;;;;;;;;;;;26.72;49.52;99567.69;3129084;28;19925;-67
2022/06/14 07:42:35;;;;;;;;;;;;;;;26.76;50.04;99561.78;3129835;28;20011;-68
2022/06/14 07:44:14;;;;;;;;;;;;;;;26.84;50.38;99568.91;3128866;28;20084;-67
2022/06/14 07:45:47;;;;;;;;;;;;;;;26.95;50.24;99565.81;3128976;28;19935;-66
2022/06/14 07:47:23;;;;;;;;;;;;;;;27.02;49.58;99560.56;3128998;28;19925;-65
2022/06/14 07:48:59;;;;;;;;;;;;;;;27.09;49.53;99560.66;3129054;28;19933;-66
2022/06/14 07:50:35;;;;;;;;;;;;;;;27.20;49.21;99569.09;3128545;28;19928;-66
2022/06/14 07:52:12;;;;;;;;;;;;;;;27.29;48.95;99569.84;3126913;28;19958;-66
2022/06/14 07:53:46;;;;;;;;;;;;;;;27.39;49.00;99561.56;3128125;28;19952;-65
2022/06/14 07:55:26;;;;;;;;;;;;;;;27.46;48.33;99573.19;3127831;28;20039;-65
2022/06/14 07:57:14;;;;;;;;;;;;;;;27.54;47.84;99569.56;3128519;28;19935;-66
2022/06/14 07:58:49;;;;;;;;;;;;;;;27.61;47.79;99563.31;3127427;28;19928;-66
2022/06/14 08:02:20;;;;;;;;;;;;;;;27.81;47.36;99577.00;3128894;28;20382;-66
2022/06/14 08:03:55;;;;;;;;;;;;;;;27.89;47.30;99570.69;3128384;28;19940;-65
2022/06/14 08:05:31;;;;;;;;;;;;;;;27.98;47.76;99566.06;3128401;28;19928;-65
2022/06/14 08:07:04;;;;;;;;;;;;;;;28.08;47.75;99561.25;3128805;28;20412;-64
2022/06/14 08:08:39;;;;;;;;;;;;;;;28.17;47.14;99568.16;3128525;28;19933;-66
2022/06/14 08:10:13;;;;;;;;;;;;;;;28.26;46.86;99566.19;3128541;28;20024;-66
2022/06/14 08:11:47;;;;;;;;;;;;;;;28.27;46.25;99563.31;3128516;28;20623;-65
2022/06/14 08:13:21;;;;;;;;;;;;;;;28.30;46.02;99570.13;3127100;28;19925;-65
2022/06/14 08:14:55;;;;;;;;;;;;;;;28.35;46.21;99562.38;3128723;28;20031;-66
2022/06/14 08:16:29;;;;;;;;;;;;;;;28.40;45.88;99565.31;3128440;28;19924;-65
2022/06/14 08:18:03;;;;;;;;;;;;;;;28.48;46.16;99559.03;3128717;28;19990;-64
2022/06/14 08:19:42;;;;;;;;;;;;;;;28.58;46.58;99551.50;3128683;28;19924;-67
2022/06/14 08:21:18;;;;;;;;;;;;;;;28.68;45.94;99552.00;3128767;28;19982;-66
2022/06/14 08:22:59;;;;;;;;;;;;;;;28.78;46.00;99557.88;3128493;28;20389;-64